Thu, 15 Apr 2021 11:20:52 UTC

Information for RPM brotli-1.0.7-11.fc33.x86_64.rpm

ID21577252
Namebrotli
Version1.0.7
Release11.fc33
Epoch
Archx86_64
SummaryLossless compression algorithm
DescriptionBrotli is a generic-purpose lossless compression algorithm that compresses data using a combination of a modern variant of the LZ77 algorithm, Huffman coding and 2nd order context modeling, with a compression ratio comparable to the best currently available general-purpose compression methods. It is similar in speed with deflate but offers more dense compression.
Build Time2020-05-23 16:39:35 GMT
Size330,217
2b7ff923c177b3ca6ca1660515cfabf6
LicenseMIT
Buildrootf33-python-20856206-1539639
Provides
brotli = 1.0.7-11.fc33
brotli(x86-64) = 1.0.7-11.fc33
Obsoletes No Obsoletes
Conflicts No Conflicts
Requires
libbrotli(x86-64) = 1.0.7-11.fc33
libc.so.6()(64bit)
libc.so.6(GLIBC_2.14)(64bit)
libc.so.6(GLIBC_2.2.5)(64bit)
libc.so.6(GLIBC_2.3.4)(64bit)
libc.so.6(GLIBC_2.4)(64bit)
libm.so.6()(64bit)
libm.so.6(GLIBC_2.29)(64bit)
rpmlib(CompressedFileNames) <= 3.0.4-1
rpmlib(FileDigests) <= 4.6.0-1
rpmlib(PayloadFilesHavePrefix) <= 4.0-1
rpmlib(PayloadIsZstd) <= 5.4.18-1
rtld(GNU_HASH)
Recommends No Recommends
Suggests No Suggests
Supplements No Supplements
Enhances No Enhances
Files
1 through 4 of 4
Name ascending sort Size
/usr/bin/brotli756,992
/usr/lib/.build-id0
/usr/lib/.build-id/450
/usr/lib/.build-id/45/908bb0a1ee2f9bea525ae9a83522acfc878f4f26
Component of
Page:
1 through 50 of 10671 >>>
Buildroot descending sort Created State
f33-build-22187352-1884844 2020-08-14 03:23:33 expired
f33-build-22187134-1884738 2020-08-14 03:06:46 expired
f33-build-22187107-1884738 2020-08-14 03:05:29 expired
f33-build-22187080-1884738 2020-08-14 03:03:52 expired
f33-build-22186281-1884684 2020-08-14 01:32:27 expired
f33-build-22185975-1884442 2020-08-14 00:55:17 expired
f33-build-22185239-1884442 2020-08-13 23:37:31 expired
f33-build-22184787-1884442 2020-08-13 22:56:06 expired
f33-build-22184420-1884267 2020-08-13 22:11:09 expired
f33-build-22183605-1883803 2020-08-13 20:24:06 expired
f33-build-22183522-1883803 2020-08-13 20:10:24 expired
f33-build-22183443-1883803 2020-08-13 19:59:31 expired
f33-build-22183125-1883803 2020-08-13 18:18:07 expired
f33-build-22182916-1883803 2020-08-13 17:17:53 expired
f33-build-22182823-1883803 2020-08-13 16:58:33 expired
f33-build-22182647-1883691 2020-08-13 16:11:00 expired
f33-build-22182484-1883590 2020-08-13 15:50:40 expired
f33-build-22182331-1883560 2020-08-13 15:25:40 expired
f33-build-22182038-1883278 2020-08-13 14:48:05 expired
f33-build-22181131-1882884 2020-08-13 13:01:27 expired
f33-build-22181116-1882884 2020-08-13 12:58:44 expired
f33-build-22180466-1882497 2020-08-13 12:05:01 expired
f33-build-22180019-1882497 2020-08-13 11:07:02 expired
f33-build-22179121-1882497 2020-08-13 09:37:37 expired
f33-build-22179098-1882497 2020-08-13 09:35:00 expired
f33-build-22179088-1882497 2020-08-13 09:32:44 expired
f33-build-22178963-1882497 2020-08-13 09:16:02 expired
f33-build-22178562-1882497 2020-08-13 08:38:42 expired
f33-build-22178558-1882497 2020-08-13 08:38:23 expired
f33-build-22178549-1882497 2020-08-13 08:38:05 expired
f33-build-22178544-1882497 2020-08-13 08:38:05 expired
f33-build-22178536-1882497 2020-08-13 08:37:47 expired
f33-build-22178525-1882497 2020-08-13 08:37:27 expired
f33-build-22178383-1882497 2020-08-13 08:25:56 expired
f33-build-22178237-1882497 2020-08-13 08:11:24 expired
f33-build-22178135-1882497 2020-08-13 07:59:15 expired
f33-build-22178129-1882497 2020-08-13 07:58:56 expired
f33-build-22178127-1882497 2020-08-13 07:58:56 expired
f33-build-22178122-1882497 2020-08-13 07:58:36 expired
f33-build-22178117-1882497 2020-08-13 07:58:36 expired
f33-build-22178116-1882497 2020-08-13 07:58:35 expired
f33-build-22178115-1882497 2020-08-13 07:58:35 expired
f33-build-22178110-1882497 2020-08-13 07:58:18 expired
f33-build-22178104-1882497 2020-08-13 07:58:16 expired
f33-build-22178103-1882497 2020-08-13 07:58:16 expired
f33-build-22178091-1882497 2020-08-13 07:57:57 expired
f33-build-22178087-1882497 2020-08-13 07:57:39 expired
f33-build-22178085-1882497 2020-08-13 07:57:38 expired
f33-build-22178073-1882497 2020-08-13 07:53:22 expired
f33-build-22178063-1882497 2020-08-13 07:52:44 expired